createdAt,value
2022-11-18T00:01:11.951Z,9.30
2022-11-18T00:04:00.086Z,9.53
2022-11-18T00:06:47.604Z,10.43
2022-11-18T00:09:35.317Z,9.60
2022-11-18T00:12:40.285Z,9.97
2022-11-18T00:15:31.707Z,9.20
2022-11-18T00:18:20.881Z,9.97
2022-11-18T00:21:10.538Z,9.00
2022-11-18T00:23:58.156Z,9.97
2022-11-18T00:26:45.994Z,10.47
2022-11-18T00:29:34.272Z,11.13
2022-11-18T00:32:22.038Z,10.43
2022-11-18T00:35:11.164Z,11.37
2022-11-18T00:37:58.998Z,10.67
2022-11-18T00:40:46.650Z,10.50
2022-11-18T00:43:34.354Z,10.33
2022-11-18T00:46:21.907Z,11.47
2022-11-18T00:49:09.967Z,11.50
2022-11-18T00:51:59.208Z,11.77
2022-11-18T00:54:47.144Z,11.27
2022-11-18T00:57:38.515Z,11.70
2022-11-18T01:00:26.388Z,11.23
2022-11-18T01:03:14.326Z,11.83
2022-11-18T01:06:02.045Z,10.73
2022-11-18T01:08:51.376Z,10.53
2022-11-18T01:11:56.443Z,10.33
2022-11-18T01:14:44.083Z,10.77
2022-11-18T01:17:32.263Z,10.67
2022-11-18T01:20:19.972Z,10.60
2022-11-18T01:23:07.724Z,10.10
2022-11-18T01:25:57.249Z,10.60
2022-11-18T01:28:45.255Z,10.33
2022-11-18T01:31:33.082Z,10.27
2022-11-18T01:34:20.518Z,9.93
2022-11-18T01:37:08.757Z,9.87
2022-11-18T01:39:56.496Z,9.23
2022-11-18T01:42:45.450Z,9.37
2022-11-18T01:45:35.567Z,8.90
2022-11-18T01:48:27.833Z,9.60
2022-11-18T01:51:19.171Z,9.00
2022-11-18T01:54:10.388Z,9.33
2022-11-18T01:57:01.738Z,9.53
2022-11-18T01:59:55.167Z,8.83
2022-11-18T02:02:46.999Z,9.20
2022-11-18T02:05:36.698Z,8.50
2022-11-18T02:08:24.808Z,9.13
2022-11-18T02:11:34.373Z,9.33
2022-11-18T02:14:25.472Z,9.70
2022-11-18T02:17:24.316Z,10.00
2022-11-18T02:20:25.210Z,9.60
2022-11-18T02:23:41.513Z,10.67
2022-11-18T02:27:21.291Z,10.73
2022-11-18T02:30:12.207Z,11.43
2022-11-18T02:33:07.968Z,11.13
2022-11-18T02:36:03.314Z,11.30
2022-11-18T02:38:56.052Z,11.83
2022-11-18T02:41:47.152Z,11.90
2022-11-18T02:44:37.642Z,12.17
2022-11-18T02:47:30.557Z,11.87
2022-11-18T02:50:22.538Z,12.23
2022-11-18T02:53:14.050Z,13.30
2022-11-18T02:56:03.811Z,12.47
2022-11-18T02:58:51.546Z,12.63
2022-11-18T03:01:39.832Z,13.80
2022-11-18T03:04:29.344Z,13.20
2022-11-18T03:07:24.414Z,13.90
2022-11-18T03:10:12.626Z,13.57
2022-11-18T03:13:07.325Z,13.57
2022-11-18T03:16:04.150Z,12.80
2022-11-18T03:18:58.251Z,14.00
2022-11-18T03:21:53.437Z,14.23
2022-11-18T03:24:44.797Z,13.67
2022-11-18T03:27:37.348Z,14.53
2022-11-18T03:30:26.224Z,13.97
2022-11-18T03:33:18.598Z,14.40
2022-11-18T03:36:10.677Z,13.53
2022-11-18T03:39:03.143Z,14.10
2022-11-18T03:41:54.922Z,13.90
2022-11-18T03:44:52.249Z,15.63
2022-11-18T03:47:43.530Z,16.10
2022-11-18T03:50:35.365Z,15.13
2022-11-18T03:53:25.931Z,15.50
2022-11-18T03:56:18.512Z,14.43
2022-11-18T03:59:12.986Z,15.80
2022-11-18T04:02:07.648Z,15.00
2022-11-18T04:04:58.091Z,16.03
2022-11-18T04:07:54.074Z,16.43
2022-11-18T04:10:49.010Z,15.93
2022-11-18T04:13:39.510Z,15.00
2022-11-18T04:16:27.203Z,17.33
2022-11-18T04:19:15.099Z,16.53
2022-11-18T04:22:03.112Z,16.53
2022-11-18T04:24:50.623Z,16.67
2022-11-18T04:27:38.464Z,16.53
2022-11-18T04:30:27.491Z,17.10
2022-11-18T04:33:15.088Z,15.93
2022-11-18T04:36:02.652Z,15.77
2022-11-18T04:38:50.501Z,16.10
2022-11-18T04:41:55.612Z,15.10
2022-11-18T04:44:43.039Z,15.43
2022-11-18T04:47:31.951Z,15.47
2022-11-18T04:50:19.885Z,15.57
2022-11-18T04:53:07.795Z,14.90
2022-11-18T04:55:55.743Z,15.67
2022-11-18T04:58:43.541Z,14.87
2022-11-18T05:01:31.187Z,13.80
2022-11-18T05:04:22.060Z,14.17
2022-11-18T05:07:09.926Z,14.87
2022-11-18T05:09:57.863Z,15.03
2022-11-18T05:12:50.691Z,14.93
2022-11-18T05:15:38.420Z,15.70
2022-11-18T05:18:26.063Z,14.80
2022-11-18T05:21:15.282Z,14.70
2022-11-18T05:24:05.007Z,13.83
2022-11-18T05:26:53.482Z,14.13
2022-11-18T05:29:41.304Z,15.13
2022-11-18T05:32:28.912Z,14.00
2022-11-18T05:35:16.818Z,16.40
2022-11-18T05:38:05.793Z,16.60
2022-11-18T05:40:53.267Z,15.67
2022-11-18T05:43:39.696Z,15.10
2022-11-18T05:46:28.387Z,15.80
2022-11-18T05:49:16.430Z,16.20
2022-11-18T05:52:05.087Z,16.30
2022-11-18T05:54:54.359Z,14.90
2022-11-18T05:57:41.781Z,14.93
2022-11-18T06:00:30.499Z,15.40
2022-11-18T06:03:23.909Z,15.87
2022-11-18T06:06:18.710Z,16.50
2022-11-18T06:09:08.076Z,17.27
2022-11-18T06:11:59.676Z,16.73
2022-11-18T06:14:51.885Z,18.63
2022-11-18T06:17:44.619Z,18.10
2022-11-18T06:20:36.770Z,19.20
2022-11-18T06:23:24.997Z,19.37
2022-11-18T06:26:16.760Z,18.90
2022-11-18T06:29:07.947Z,19.13
2022-11-18T06:31:55.722Z,19.20
2022-11-18T06:34:43.285Z,18.93
2022-11-18T06:37:32.487Z,19.07
2022-11-18T06:40:20.398Z,20.17
2022-11-18T06:43:27.284Z,20.63
2022-11-18T06:46:35.987Z,20.50
2022-11-18T06:49:25.229Z,20.43
2022-11-18T06:52:12.983Z,20.33
2022-11-18T06:55:00.817Z,19.33
2022-11-18T06:57:48.623Z,21.67
2022-11-18T07:00:36.581Z,19.13
2022-11-18T07:03:25.375Z,19.47
2022-11-18T07:06:14.336Z,19.90
2022-11-18T07:09:03.073Z,19.87
2022-11-18T07:11:51.017Z,18.77
2022-11-18T07:14:39.040Z,18.00
2022-11-18T07:17:27.292Z,18.43
2022-11-18T07:20:16.757Z,19.00
2022-11-18T07:23:04.774Z,18.67
2022-11-18T07:25:55.830Z,17.77
2022-11-18T07:28:44.166Z,17.50
2022-11-18T07:31:32.525Z,19.10
2022-11-18T07:34:20.354Z,19.37
2022-11-18T07:37:09.516Z,19.80
2022-11-18T07:39:59.821Z,18.60
2022-11-18T07:42:47.667Z,17.93
2022-11-18T07:45:44.412Z,19.20
2022-11-18T07:48:32.181Z,19.10
2022-11-18T07:51:21.566Z,19.17
2022-11-18T07:54:11.938Z,20.20
2022-11-18T07:56:59.612Z,20.60
2022-11-18T07:59:47.817Z,20.37
2022-11-18T08:02:35.700Z,20.07
2022-11-18T08:05:23.303Z,20.83
2022-11-18T08:08:11.023Z,19.33
2022-11-18T08:11:01.850Z,20.30
2022-11-18T08:13:49.579Z,20.60
2022-11-18T08:16:37.572Z,19.30
2022-11-18T08:19:25.300Z,20.43
2022-11-18T08:22:13.148Z,19.50
2022-11-18T08:25:00.925Z,19.60
2022-11-18T08:27:49.927Z,20.23
2022-11-18T08:30:38.088Z,19.20
2022-11-18T08:33:26.060Z,21.37
2022-11-18T08:36:16.934Z,19.70
2022-11-18T08:39:06.920Z,19.53
2022-11-18T08:41:54.676Z,20.03
2022-11-18T08:44:43.873Z,20.87
2022-11-18T08:47:31.774Z,20.87
2022-11-18T08:50:19.647Z,21.40
2022-11-18T08:53:07.220Z,19.33
2022-11-18T08:55:57.601Z,17.87
2022-11-18T08:58:45.566Z,17.60
2022-11-18T09:01:34.622Z,19.13
2022-11-18T09:04:22.240Z,18.87
2022-11-18T09:07:09.811Z,19.53
2022-11-18T09:09:57.347Z,18.87
2022-11-18T09:12:44.882Z,18.73
2022-11-18T09:15:32.941Z,19.93
2022-11-18T09:18:21.992Z,19.83
2022-11-18T09:21:11.380Z,18.40
2022-11-18T09:23:59.082Z,17.77
2022-11-18T09:26:48.195Z,17.23
2022-11-18T09:29:35.758Z,18.00
2022-11-18T09:32:24.011Z,17.30
2022-11-18T09:35:12.772Z,17.10
2022-11-18T09:38:00.497Z,18.40
2022-11-18T09:40:56.960Z,19.27
2022-11-18T09:43:58.737Z,17.90
2022-11-18T09:46:58.003Z,17.77
2022-11-18T09:49:47.090Z,17.90
2022-11-18T09:52:44.676Z,16.37
2022-11-18T09:55:35.812Z,16.43
2022-11-18T09:58:32.326Z,17.80
2022-11-18T10:01:21.504Z,16.70
2022-11-18T10:04:16.230Z,17.90
2022-11-18T10:07:09.326Z,16.10
2022-11-18T10:09:59.511Z,16.90
2022-11-18T10:12:53.675Z,16.87
2022-11-18T10:15:49.432Z,15.33
2022-11-18T10:19:00.623Z,15.60
2022-11-18T10:21:56.705Z,15.87
2022-11-18T10:24:50.010Z,16.27
2022-11-18T10:27:40.862Z,15.67
2022-11-18T10:30:28.802Z,15.73
2022-11-18T10:33:26.541Z,16.77
2022-11-18T10:36:28.266Z,16.40
2022-11-18T10:39:17.257Z,16.23
2022-11-18T10:42:07.170Z,16.10
2022-11-18T10:44:57.165Z,15.60
2022-11-18T10:47:59.132Z,16.70
2022-11-18T10:50:53.522Z,15.90
2022-11-18T10:53:43.848Z,16.57
2022-11-18T10:56:46.513Z,15.87
2022-11-18T10:59:36.327Z,15.97
2022-11-18T11:02:31.212Z,16.20
2022-11-18T11:05:21.714Z,16.90
2022-11-18T11:08:36.571Z,16.50
2022-11-18T11:11:28.692Z,16.07
2022-11-18T11:14:28.214Z,16.63
2022-11-18T11:17:18.429Z,19.33
2022-11-18T11:20:18.617Z,17.87
2022-11-18T11:23:10.766Z,17.67
2022-11-18T11:29:22.219Z,18.63
2022-11-18T11:32:18.209Z,25.23
2022-11-18T11:35:15.688Z,20.07
2022-11-18T11:38:13.591Z,20.57
2022-11-18T11:41:08.114Z,20.17
2022-11-18T11:44:16.301Z,20.40
2022-11-18T11:47:31.635Z,21.03
2022-11-18T11:50:28.945Z,21.23
2022-11-18T11:53:21.836Z,20.07
2022-11-18T11:56:22.203Z,21.80
2022-11-18T11:59:27.000Z,24.40
2022-11-18T12:02:33.685Z,21.13
2022-11-18T12:05:27.479Z,25.40
2022-11-18T12:08:18.234Z,21.83
2022-11-18T12:11:14.422Z,21.40
2022-11-18T12:14:06.458Z,19.13
2022-11-18T12:16:59.950Z,17.37
2022-11-18T12:19:47.690Z,18.07
2022-11-18T12:23:08.364Z,17.35
2022-11-18T12:50:12.793Z,13.77
2022-11-18T12:53:00.484Z,11.73
2022-11-18T12:55:48.390Z,13.03
2022-11-18T12:58:36.265Z,12.10
2022-11-18T13:01:26.322Z,12.40
2022-11-18T13:04:16.790Z,10.13
2022-11-18T13:07:05.287Z,11.10
2022-11-18T13:09:52.951Z,10.17
2022-11-18T13:12:50.509Z,9.03
2022-11-18T13:16:01.101Z,8.67
2022-11-18T13:18:50.648Z,8.30
2022-11-18T13:21:57.451Z,7.53
2022-11-18T13:24:46.798Z,7.47
2022-11-18T13:27:50.568Z,8.00
2022-11-18T13:30:44.387Z,6.20
2022-11-18T13:33:36.991Z,5.73
2022-11-18T13:36:26.257Z,5.63
2022-11-18T13:39:22.615Z,5.83
2022-11-18T13:42:17.815Z,5.70
2022-11-18T13:45:07.379Z,5.40
2022-11-18T13:47:59.868Z,5.20
2022-11-18T13:50:52.786Z,5.00
2022-11-18T13:53:43.034Z,4.90
2022-11-18T13:56:35.100Z,5.03
2022-11-18T13:59:26.016Z,5.10
2022-11-18T14:02:15.691Z,4.83
2022-11-18T14:05:03.648Z,4.73
2022-11-18T14:08:06.487Z,4.67
2022-11-18T17:40:30.640Z,15.60
